CST,Max TemperatureF,Mean TemperatureF,Min TemperatureF,Max Dew PointF,MeanDew PointF,Min DewpointF,Max Humidity, Mean Humidity, Min Humidity, Max Sea Level PressureIn, Mean Sea Level PressureIn, Min Sea Level PressureIn, Max VisibilityMiles, Mean VisibilityMiles, Min VisibilityMiles, Max Wind SpeedMPH, Mean Wind SpeedMPH, Max Gust SpeedMPH,PrecipitationIn, CloudCover, Events, WindDirDegrees
2013-12-1,34,24,15,26,21,14,96,83,59,30.12,30.05,29.93,10,8,4,7,2,,0.00,5,,3
2013-12-2,32,24,15,28,25,14,95,89,78,29.93,29.79,29.71,10,5,1,13,6,21,0.05,7,Snow,126
2013-12-3,31,28,26,30,28,25,96,93,89,29.79,29.73,29.67,10,4,0,16,11,22,0.11,8,Snow,95
2013-12-4,33,29,25,33,29,23,99,95,84,29.78,29.57,29.35,10,5,0,23,10,31,0.19,8,Fog-Rain-Snow,99
2013-12-5,26,13,0,23,4,-5,91,78,67,30.17,29.86,29.49,10,8,2,25,17,32,0.03,7,Snow,258
2013-12-6,4,-2,-7,-5,-8,-12,84,77,65,30.46,30.34,30.22,10,10,10,13,8,16,0.00,0,,277
2013-12-7,-1,-7,-13,-11,-14,-18,85,77,63,30.57,30.51,30.46,10,10,10,10,5,,0.00,0,,252
2013-12-8,10,-1,-12,7,-2,-17,86,82,77,30.47,30.22,29.93,10,4,1,12,3,,0.00,7,Snow,87
2013-12-9,10,0,-11,7,-4,-16,89,78,61,29.98,29.90,29.84,10,6,0,22,7,31,0.00,5,Snow,251
2013-12-10,4,-3,-10,-4,-6,-15,83,77,65,30.09,29.89,29.72,10,7,2,17,8,23,0.00,4,Snow,239
2013-12-11,0,-6,-11,-4,-14,-17,84,73,58,30.37,30.29,30.09,10,10,2,14,8,18,0.00,1,Snow,271
2013-12-12,11,2,-8,6,-3,-14,84,76,65,30.26,30.14,30.07,10,8,1,9,6,,0.00,6,Snow,248
2013-12-13,11,9,7,6,3,0,83,75,68,30.23,30.16,30.08,10,9,3,13,7,16,0.00,8,Snow,44
2013-12-14,16,11,6,11,6,1,89,81,73,30.22,30.05,29.86,10,5,1,15,8,20,0.00,8,Snow,70
2013-12-15,7,-2,-12,3,-10,-16,83,74,60,30.03,29.95,29.86,10,10,4,15,10,21,0.00,3,Snow,300
2013-12-16,11,-2,-13,9,-3,-18,92,82,72,30.03,29.95,29.85,10,7,1,13,3,,0.00,7,Snow,199
2013-12-17,26,16,5,22,14,0,94,82,67,29.98,29.84,29.74,10,6,1,18,8,28,0.00,7,Snow,270
2013-12-18,23,9,-5,14,4,-9,93,78,60,29.98,29.79,29.62,10,10,4,15,5,18,0.00,2,,170
2013-12-19,22,16,10,15,12,8,93,82,71,29.98,29.91,29.70,10,9,2,14,7,17,0.00,5,Snow,21
2013-12-20,18,16,13,16,12,9,89,83,77,29.95,29.88,29.78,10,8,2,12,8,18,0.00,8,Snow,47
2013-12-21,23,20,18,18,17,16,96,87,77,29.92,29.85,29.78,10,8,2,12,4,,0.00,8,,27
2013-12-22,23,20,16,20,16,14,93,84,72,30.06,29.90,29.81,10,7,1,13,8,16,0.00,8,Snow,27
2013-12-23,17,6,-5,15,6,-10,93,86,79,30.34,30.21,30.06,10,4,0,8,2,,0.00,7,Snow,255
2013-12-24,9,2,-6,6,4,-11,87,86,82,30.38,30.30,30.10,10,5,0,13,3,,0.00,6,Fog-Snow,156
2013-12-25,14,10,6,12,7,3,90,85,81,30.09,30.01,29.97,10,4,1,13,8,18,0.00,8,Snow,227
2013-12-26,15,10,6,12,7,3,88,82,77,30.12,30.07,29.99,10,9,2,7,3,,0.00,8,Snow,237
2013-12-27,32,23,14,27,22,11,96,88,78,30.13,29.99,29.84,10,6,0,13,4,17,0.00,5,Fog,210
2013-12-28,35,28,21,31,25,20,98,94,80,29.94,29.79,29.67,10,4,0,18,4,22,0.00,4,Fog,156
2013-12-29,28,6,-18,26,-2,-23,91,75,61,30.14,30.00,29.74,10,9,4,22,14,33,0.00,5,Snow,332
2013-12-30,-4,-15,-26,-10,-20,-32,80,71,50,30.19,30.12,30.07,10,9,4,7,2,,0.00,4,Snow,255
2013-12-31,-3,-11,-19,-10,-15,-24,83,76,63,30.30,30.16,30.05,10,9,4,13,5,,0.00,2,Snow,274